Terminal Aerodrome Forecast
Issued by NWS

Home | Current Version | Previous Version | Text Only | Print | Product List | Glossary On
Versions: 1 2 3 4 5 6 7 8 9 10 11 12 13 14 15 16 17 18 19 20 21 22 23 24 25 26 27 28 29 30 31 32 33 34 35 36 37 38 39 40 41 42
000
FTUS43 KDLH 291200 AAA
TAFHYR
TAF AMD
KHYR 291235Z 2913/3012 17007KT P6SM -SHRA SCT035 BKN050
      TEMPO 2913/2914 4SM -SHRA
     FM291400 20007KT P6SM -SHRA BKN025 OVC035
     FM291800 28009KT P6SM -SHRA SCT030 OVC040
      TEMPO 2918/2921 -TSRA BKN030CB
     FM292100 35008G15KT P6SM SCT030 BKN040
     FM300300 36008KT P6SM SCT025=

USA.gov is the U.S. government's official web portal to all federal, state and local government web resources and services.